Time;durP1;ratioP1;P1;durP2;ratioP2;P2;SDS_P1;SDS_P2;PMS_P1;PMS_P2;Temp;Humidity;BMP_temperature;BMP_pressure;BME280_temperature;BME280_humidity;BME280_pressure;Samples;Min_cycle;Max_cycle;Signal;HPM_P1;HPM_P2
2021/05/09 00:00:58;;;;;;;2.77;2.57;;;10.10;52.50;;;;;;5017353;28;20451;-83
2021/05/09 00:03:35;;;;;;;6.27;2.97;;;10.10;52.60;;;;;;5014941;28;20455;-82
2021/05/09 00:06:10;;;;;;;3.33;2.77;;;10.10;52.60;;;;;;5012994;28;20954;-82
2021/05/09 00:08:45;;;;;;;3.83;2.67;;;10.10;52.70;;;;;;5015769;28;20455;-82
2021/05/09 00:11:21;;;;;;;3.20;2.90;;;10.00;52.90;;;;;;5016838;28;20452;-84
2021/05/09 00:14:03;;;;;;;3.20;2.90;;;10.00;52.90;;;;;;5016884;28;20459;-84
2021/05/09 00:16:38;;;;;;;6.77;2.83;;;10.00;53.00;;;;;;5022478;28;20464;-82
2021/05/09 00:19:14;;;;;;;4.53;3.00;;;10.00;53.10;;;;;;5022643;28;20459;-81
2021/05/09 00:21:49;;;;;;;3.33;3.00;;;10.00;53.60;;;;;;5021954;28;20475;-82
2021/05/09 00:24:23;;;;;;;3.40;3.10;;;9.90;54.30;;;;;;5023750;28;22579;-81
2021/05/09 00:26:58;;;;;;;3.23;2.97;;;9.90;54.30;;;;;;5017399;28;20470;-81
2021/05/09 00:29:34;;;;;;;3.17;2.40;;;9.90;54.40;;;;;;5017497;28;20479;-83
2021/05/09 00:32:09;;;;;;;3.30;3.00;;;9.90;54.50;;;;;;5012329;28;20448;-82
2021/05/09 00:34:44;;;;;;;3.13;2.70;;;9.90;54.70;;;;;;5015788;28;20466;-82
2021/05/09 00:37:19;;;;;;;2.60;2.40;;;9.90;54.50;;;;;;5016632;28;20444;-81
2021/05/09 00:39:59;;;;;;;3.13;2.93;;;10.00;53.80;;;;;;5013849;28;20461;-81
2021/05/09 00:42:34;;;;;;;3.37;2.93;;;9.80;54.80;;;;;;5017885;28;20446;-82
2021/05/09 00:45:11;;;;;;;2.93;2.63;;;9.80;54.90;;;;;;5014536;28;20551;-81
2021/05/09 00:47:46;;;;;;;3.73;2.60;;;9.80;55.00;;;;;;5016214;28;20464;-81
2021/05/09 00:50:29;;;;;;;3.40;2.87;;;9.70;55.20;;;;;;5016030;28;20455;-81
2021/05/09 00:53:03;;;;;;;3.17;2.90;;;9.70;55.20;;;;;;5016690;28;20520;-81
2021/05/09 00:55:40;;;;;;;2.80;2.57;;;9.70;55.40;;;;;;5014551;28;20582;-82
2021/05/09 00:58:16;;;;;;;3.30;3.00;;;9.60;55.60;;;;;;5016131;28;20465;-83
2021/05/09 01:00:52;;;;;;;3.70;3.40;;;9.70;55.70;;;;;;5012268;28;20458;-80
2021/05/09 01:03:28;;;;;;;3.10;2.70;;;9.60;55.80;;;;;;5019019;28;20452;-81
2021/05/09 01:06:08;;;;;;;3.03;2.73;;;9.60;55.90;;;;;;5016946;28;20534;-82
2021/05/09 01:08:43;;;;;;;2.87;2.63;;;9.60;56.10;;;;;;5025646;28;20475;-83
2021/05/09 01:11:17;;;;;;;5.03;2.87;;;9.60;56.20;;;;;;5018817;28;20494;-81
2021/05/09 01:13:52;;;;;;;3.90;2.70;;;9.60;56.30;;;;;;5019408;28;20451;-82
2021/05/09 01:16:33;;;;;;;2.87;2.67;;;9.50;56.40;;;;;;5015623;28;21045;-82
2021/05/09 01:19:08;;;;;;;3.50;3.20;;;9.50;56.60;;;;;;5019785;28;20451;-82
2021/05/09 01:21:47;;;;;;;3.90;3.27;;;9.40;56.60;;;;;;5022674;28;20505;-81
2021/05/09 01:24:31;;;;;;;5.03;3.10;;;9.40;56.90;;;;;;5019608;28;20452;-81
2021/05/09 01:27:07;;;;;;;3.27;2.97;;;9.30;57.10;;;;;;5018439;28;20463;-81
2021/05/09 01:29:47;;;;;;;3.30;3.00;;;9.30;57.40;;;;;;5016561;28;20508;-81
2021/05/09 01:32:22;;;;;;;4.80;2.60;;;9.30;57.90;;;;;;5016024;28;20998;-81
2021/05/09 01:34:56;;;;;;;3.17;2.90;;;9.20;57.80;;;;;;5020295;28;20455;-81
2021/05/09 01:37:33;;;;;;;2.60;2.30;;;9.10;58.10;;;;;;5020599;28;20448;-82
2021/05/09 01:40:11;;;;;;;3.40;3.10;;;9.10;58.30;;;;;;5019309;28;20517;-82
2021/05/09 01:42:46;;;;;;;3.60;3.30;;;9.10;58.40;;;;;;5018182;28;20450;-82
2021/05/09 01:45:21;;;;;;;3.00;2.80;;;9.10;58.70;;;;;;5017385;28;20463;-83
2021/05/09 01:47:56;;;;;;;4.57;2.43;;;9.00;58.90;;;;;;5011718;28;20466;-83
2021/05/09 01:50:33;;;;;;;3.23;2.93;;;9.10;58.90;;;;;;5021027;28;20490;-82
2021/05/09 01:53:10;;;;;;;3.13;2.80;;;9.00;59.10;;;;;;5020269;28;20464;-82
2021/05/09 01:55:45;;;;;;;3.23;2.60;;;9.10;59.30;;;;;;5018740;28;20495;-82
2021/05/09 01:58:19;;;;;;;2.83;2.50;;;9.10;59.50;;;;;;5018606;28;20918;-82
2021/05/09 02:00:54;;;;;;;3.10;2.77;;;9.00;59.50;;;;;;5018171;28;20465;-81
2021/05/09 02:03:29;;;;;;;3.23;2.90;;;9.10;59.70;;;;;;5017543;28;20452;-81
2021/05/09 02:06:03;;;;;;;3.03;2.77;;;9.10;59.70;;;;;;5020025;28;20456;-82
2021/05/09 02:08:39;;;;;;;5.73;2.77;;;9.00;59.90;;;;;;5016108;28;20495;-82
2021/05/09 02:11:14;;;;;;;3.47;2.80;;;8.90;60.30;;;;;;5015781;28;20460;-82
2021/05/09 02:13:49;;;;;;;7.10;3.00;;;9.00;60.50;;;;;;5013767;28;20474;-82
2021/05/09 02:16:23;;;;;;;3.07;2.77;;;8.90;60.60;;;;;;5017845;28;20487;-82
2021/05/09 02:19:00;;;;;;;2.80;2.60;;;8.90;60.90;;;;;;5014158;28;20455;-81
2021/05/09 02:21:40;;;;;;;3.63;3.33;;;8.90;60.90;;;;;;5016259;28;20986;-82
2021/05/09 02:24:16;;;;;;;3.27;2.97;;;8.90;61.40;;;;;;5017565;28;20459;-83
2021/05/09 02:26:56;;;;;;;3.23;2.93;;;8.80;61.70;;;;;;5022923;28;20499;-82
2021/05/09 02:29:28;;;;;;;2.97;2.67;;;8.80;62.10;;;;;;5014535;28;20443;-82
2021/05/09 02:32:03;;;;;;;3.23;3.00;;;8.70;62.30;;;;;;5018474;28;20504;-81
2021/05/09 02:34:38;;;;;;;3.03;2.50;;;8.70;62.70;;;;;;5017689;28;20454;-81
2021/05/09 02:37:13;;;;;;;3.20;2.93;;;8.70;63.10;;;;;;5023481;28;20475;-82
2021/05/09 02:39:49;;;;;;;3.80;3.30;;;8.60;63.40;;;;;;5013053;28;20459;-82
2021/05/09 02:42:24;;;;;;;3.67;2.63;;;8.60;64.20;;;;;;5014732;28;20477;-82
2021/05/09 02:45:00;;;;;;;4.30;3.13;;;8.60;64.40;;;;;;5020448;28;20451;-82
2021/05/09 02:47:35;;;;;;;3.60;3.10;;;8.50;64.80;;;;;;5023286;28;20475;-81
2021/05/09 02:50:12;;;;;;;3.60;3.10;;;8.60;65.00;;;;;;5017539;28;20466;-83
2021/05/09 02:52:46;;;;;;;8.60;3.67;;;8.40;65.10;;;;;;5021535;28;20945;-82
2021/05/09 02:55:22;;;;;;;3.53;3.00;;;8.50;65.50;;;;;;5017477;28;20474;-82
2021/05/09 02:57:57;;;;;;;3.50;3.20;;;8.50;65.70;;;;;;5028991;28;20435;-83
2021/05/09 03:00:32;;;;;;;4.13;3.73;;;8.50;66.20;;;;;;5022321;28;20457;-81
2021/05/09 03:03:06;;;;;;;3.40;3.10;;;8.40;66.20;;;;;;5025757;28;20479;-82
2021/05/09 03:05:41;;;;;;;3.77;2.70;;;8.40;66.30;;;;;;5020746;28;20459;-82
2021/05/09 03:08:16;;;;;;;4.13;3.13;;;8.50;66.30;;;;;;5019351;28;20864;-82
2021/05/09 03:10:52;;;;;;;4.00;3.40;;;8.50;66.30;;;;;;5016055;28;20819;-82
2021/05/09 03:13:27;;;;;;;3.30;3.00;;;8.40;66.60;;;;;;5010993;28;20472;-82
2021/05/09 03:16:08;;;;;;;5.10;3.20;;;8.40;67.10;;;;;;5015765;28;20475;-82
2021/05/09 03:18:43;;;;;;;3.23;3.00;;;8.30;67.70;;;;;;5019679;28;20459;-82
2021/05/09 03:21:20;;;;;;;3.20;2.90;;;8.30;67.90;;;;;;5010763;28;20463;-82
2021/05/09 03:23:55;;;;;;;4.03;2.70;;;8.40;67.80;;;;;;5013012;28;20557;-82
2021/05/09 03:26:31;;;;;;;3.93;3.63;;;8.30;67.80;;;;;;5012287;28;20474;-82
2021/05/09 03:29:10;;;;;;;4.60;3.10;;;8.30;68.30;;;;;;5012442;28;20995;-82
2021/05/09 03:31:45;;;;;;;3.50;3.20;;;8.30;68.20;;;;;;5013152;28;20447;-81
2021/05/09 03:34:26;;;;;;;3.70;3.13;;;8.40;68.70;;;;;;5017744;28;20523;-82
2021/05/09 03:37:01;;;;;;;5.90;3.20;;;8.40;68.60;;;;;;5014422;28;20487;-82
2021/05/09 03:39:36;;;;;;;2.90;2.60;;;8.30;68.60;;;;;;5011906;28;20443;-82
2021/05/09 03:42:09;;;;;;;3.60;2.97;;;8.40;68.80;;;;;;5017137;28;20466;-81
2021/05/09 03:44:44;;;;;;;3.43;3.13;;;8.30;68.70;;;;;;5016604;28;20507;-83
2021/05/09 03:47:26;;;;;;;4.20;3.23;;;8.40;68.90;;;;;;5014706;28;20453;-82
2021/05/09 03:50:03;;;;;;;3.23;3.03;;;8.40;69.10;;;;;;5018291;28;20474;-82
2021/05/09 03:52:37;;;;;;;3.93;3.53;;;8.40;69.00;;;;;;5012483;28;20535;-85
2021/05/09 03:55:11;;;;;;;4.30;3.47;;;8.40;69.40;;;;;;5012127;28;20451;-84
2021/05/09 03:57:51;;;;;;;5.40;3.00;;;8.40;69.50;;;;;;5009596;28;20964;-84
2021/05/09 04:00:32;;;;;;;3.97;3.20;;;8.50;69.50;;;;;;5022241;28;20467;-84
2021/05/09 04:03:05;;;;;;;3.90;3.47;;;8.60;69.30;;;;;;5025742;28;20482;-85
2021/05/09 04:05:40;;;;;;;3.80;3.50;;;8.60;69.20;;;;;;5020915;28;20451;-84
2021/05/09 04:08:21;;;;;;;6.00;4.20;;;8.70;69.40;;;;;;5013489;28;20483;-83
2021/05/09 04:10:58;;;;;;;4.50;3.40;;;8.90;69.30;;;;;;5013247;28;20966;-84
2021/05/09 04:13:45;;;;;;;3.60;3.30;;;9.20;68.90;;;;;;5006393;28;21055;-85
2021/05/09 04:16:20;;;;;;;4.30;3.30;;;9.70;68.30;;;;;;5007957;28;20472;-84
2021/05/09 04:18:55;;;;;;;3.77;3.37;;;9.90;67.20;;;;;;5015190;28;20472;-84
2021/05/09 04:21:29;;;;;;;3.90;3.60;;;9.70;66.60;;;;;;5012109;28;20829;-84
2021/05/09 04:24:05;;;;;;;3.27;2.97;;;9.90;66.80;;;;;;5012010;28;20509;-84
2021/05/09 04:26:40;;;;;;;3.83;3.40;;;10.90;65.50;;;;;;5015135;28;20471;-84
2021/05/09 04:29:15;;;;;;;4.17;3.43;;;11.80;63.10;;;;;;5010364;28;20523;-85
2021/05/09 04:31:50;;;;;;;4.13;2.83;;;11.50;61.70;;;;;;5013266;28;20460;-84
2021/05/09 04:34:33;;;;;;;3.33;3.00;;;12.40;61.40;;;;;;5009916;28;20466;-84
2021/05/09 04:37:08;;;;;;;3.53;3.23;;;13.20;59.30;;;;;;5019128;28;20517;-85
2021/05/09 04:39:42;;;;;;;3.70;3.40;;;13.80;57.70;;;;;;5010734;28;20463;-86
2021/05/09 04:42:22;;;;;;;3.73;3.03;;;14.20;56.50;;;;;;5013599;28;20443;-87
2021/05/09 04:45:03;;;;;;;3.50;3.20;;;14.60;55.40;;;;;;5022839;28;20463;-87
2021/05/09 04:47:43;;;;;;;4.90;2.80;;;15.10;55.10;;;;;;5019889;28;20459;-86
2021/05/09 04:50:19;;;;;;;3.40;3.17;;;16.00;54.10;;;;;;5013616;28;20464;-87
2021/05/09 04:52:54;;;;;;;3.60;3.30;;;16.80;52.80;;;;;;5015911;28;20508;-85
2021/05/09 04:55:29;;;;;;;3.53;3.13;;;17.40;51.80;;;;;;5015794;28;20557;-86
2021/05/09 04:58:04;;;;;;;2.83;2.53;;;18.00;50.60;;;;;;5012724;28;20451;-87
2021/05/09 05:00:40;;;;;;;3.57;3.17;;;18.00;49.90;;;;;;5009352;28;20455;-86
2021/05/09 05:03:16;;;;;;;3.30;3.00;;;17.90;49.70;;;;;;5013248;28;20517;-87
2021/05/09 05:05:50;;;;;;;4.17;3.77;;;17.40;49.50;;;;;;5011249;28;20452;-86
2021/05/09 05:08:25;;;;;;;3.20;2.90;;;17.20;49.50;;;;;;5014458;28;20455;-86
2021/05/09 05:11:00;;;;;;;4.20;3.50;;;17.70;49.50;;;;;;5013522;28;21117;-87
2021/05/09 05:13:36;;;;;;;3.67;3.30;;;18.10;49.50;;;;;;5019449;28;20452;-86
2021/05/09 05:16:15;;;;;;;3.33;3.00;;;18.80;49.30;;;;;;5006582;28;20479;-86
2021/05/09 05:18:50;;;;;;;5.77;3.07;;;18.50;48.40;;;;;;5014077;28;20452;-86
2021/05/09 05:21:25;;;;;;;3.30;2.90;;;18.80;48.50;;;;;;5012535;28;20450;-85
2021/05/09 05:23:59;;;;;;;3.63;3.33;;;18.90;48.00;;;;;;5009358;28;20505;-86
2021/05/09 05:26:34;;;;;;;3.00;2.80;;;18.50;47.40;;;;;;5010083;28;20471;-87
2021/05/09 05:29:11;;;;;;;5.20;2.63;;;18.50;48.30;;;;;;5009289;28;20453;-86
2021/05/09 05:31:49;;;;;;;3.00;2.80;;;19.10;48.30;;;;;;5003753;28;22511;-87
2021/05/09 05:34:24;;;;;;;3.13;2.90;;;19.30;47.90;;;;;;5003487;28;20526;-87
2021/05/09 05:37:04;;;;;;;2.90;2.70;;;19.40;48.10;;;;;;5001973;28;20584;-87
2021/05/09 05:39:39;;;;;;;2.90;2.70;;;19.60;47.90;;;;;;5001853;28;20445;-86
2021/05/09 05:42:14;;;;;;;2.43;2.23;;;19.40;47.10;;;;;;5001631;28;20471;-87
2021/05/09 05:44:49;;;;;;;4.83;3.40;;;18.60;47.30;;;;;;5000580;28;20558;-87
2021/05/09 05:50:17;;;;;;;3.30;3.10;;;18.20;47.70;;;;;;4999685;28;20842;-86
2021/05/09 05:52:57;;;;;;;4.27;3.10;;;18.00;48.00;;;;;;4998661;28;20459;-87
2021/05/09 05:55:32;;;;;;;3.73;2.97;;;17.90;47.70;;;;;;5004781;28;21133;-87
2021/05/09 05:58:06;;;;;;;3.60;2.80;;;17.30;47.60;;;;;;5000658;28;20456;-86
2021/05/09 06:03:29;;;;;;;3.53;3.10;;;16.10;48.20;;;;;;5006187;28;20462;-87
2021/05/09 06:06:04;;;;;;;2.80;2.60;;;15.10;48.30;;;;;;5009109;28;20456;-85
2021/05/09 06:08:39;;;;;;;2.80;2.60;;;14.20;49.10;;;;;;5008789;28;20546;-83
2021/05/09 06:11:15;;;;;;;2.80;2.60;;;13.80;49.80;;;;;;5018273;28;20535;-86
2021/05/09 06:13:49;;;;;;;3.00;2.70;;;13.70;50.20;;;;;;5017024;28;20543;-83
2021/05/09 06:16:24;;;;;;;5.10;2.30;;;13.60;50.60;;;;;;5018569;28;20482;-85
2021/05/09 06:19:00;;;;;;;3.10;2.83;;;13.70;50.90;;;;;;5012931;28;20453;-84
2021/05/09 06:21:32;;;;;;;4.03;2.70;;;13.80;51.00;;;;;;5016048;28;20459;-83
2021/05/09 06:24:07;;;;;;;4.43;2.50;;;13.90;51.00;;;;;;5018865;28;20468;-85
2021/05/09 06:26:43;;;;;;;3.03;2.57;;;14.00;51.10;;;;;;5018779;28;20512;-85
2021/05/09 06:29:18;;;;;;;4.20;2.60;;;14.10;51.20;;;;;;5019652;28;20934;-84
2021/05/09 06:31:52;;;;;;;2.93;2.70;;;14.20;51.20;;;;;;5017277;28;20455;-85
2021/05/09 06:34:28;;;;;;;2.73;2.53;;;14.40;51.30;;;;;;5011639;28;22419;-85
2021/05/09 06:37:02;;;;;;;4.60;2.50;;;14.40;51.20;;;;;;5011199;28;20482;-85
2021/05/09 06:39:35;;;;;;;3.00;2.80;;;14.50;51.20;;;;;;5007750;28;21021;-84
2021/05/09 06:42:10;;;;;;;3.00;2.27;;;14.60;51.20;;;;;;5013016;28;20464;-86
2021/05/09 06:44:52;;;;;;;2.63;2.40;;;14.80;51.20;;;;;;5008566;28;20544;-85
2021/05/09 06:47:27;;;;;;;2.50;2.30;;;15.00;51.10;;;;;;5011448;28;20444;-85
2021/05/09 06:50:03;;;;;;;2.70;2.50;;;15.10;50.90;;;;;;5007568;28;20464;-85
2021/05/09 06:52:38;;;;;;;2.47;2.27;;;15.20;50.80;;;;;;5006827;28;20834;-85
2021/05/09 06:55:14;;;;;;;2.70;2.50;;;15.40;50.90;;;;;;5007579;28;20457;-86
2021/05/09 06:57:49;;;;;;;3.17;2.63;;;15.60;50.90;;;;;;5009850;28;20487;-86
2021/05/09 07:00:25;;;;;;;2.10;2.00;;;15.60;50.50;;;;;;5005289;28;20796;-86
2021/05/09 07:03:00;;;;;;;3.33;2.03;;;15.80;50.60;;;;;;5008226;28;20480;-86
2021/05/09 07:05:36;;;;;;;3.47;2.63;;;15.90;50.50;;;;;;5008901;28;21705;-84
2021/05/09 07:08:11;;;;;;;2.60;2.30;;;16.00;50.60;;;;;;5011388;28;20801;-86
2021/05/09 07:10:46;;;;;;;2.10;2.00;;;16.10;50.50;;;;;;5012894;28;20917;-86
2021/05/09 07:13:21;;;;;;;2.60;2.40;;;16.30;50.70;;;;;;5016908;28;20452;-84
2021/05/09 07:16:02;;;;;;;2.33;2.13;;;16.40;50.50;;;;;;5017939;28;20550;-85
2021/05/09 07:18:38;;;;;;;2.63;2.43;;;16.60;50.30;;;;;;5018722;28;20448;-86
2021/05/09 07:21:17;;;;;;;2.20;2.00;;;16.70;50.30;;;;;;5016192;28;20465;-84
2021/05/09 07:23:51;;;;;;;2.63;2.30;;;16.80;50.10;;;;;;5019939;28;20526;-85
2021/05/09 07:26:27;;;;;;;3.17;2.10;;;16.90;50.10;;;;;;5014776;28;20496;-86
2021/05/09 07:28:57;;;;;;;2.00;1.90;;;17.00;50.40;;;;;;5013925;28;20960;-85
2021/05/09 07:31:40;;;;;;;1.87;1.77;;;17.20;50.20;;;;;;5013556;28;20448;-86
2021/05/09 07:34:15;;;;;;;2.20;2.00;;;17.30;49.90;;;;;;5013287;28;20799;-86
2021/05/09 07:36:51;;;;;;;2.10;1.90;;;17.40;49.60;;;;;;5014731;28;20492;-85
2021/05/09 07:39:26;;;;;;;2.57;2.30;;;17.60;49.90;;;;;;5018904;28;20449;-86
2021/05/09 07:42:06;;;;;;;3.13;1.70;;;17.80;49.70;;;;;;5011376;28;20454;-87
2021/05/09 07:44:41;;;;;;;2.40;2.20;;;18.00;49.70;;;;;;5013940;28;20463;-87
2021/05/09 07:47:21;;;;;;;1.87;1.70;;;18.10;49.80;;;;;;5012148;28;20454;-86
2021/05/09 07:49:56;;;;;;;2.03;1.93;;;18.30;49.50;;;;;;5014590;28;20477;-87
2021/05/09 07:52:37;;;;;;;3.00;2.37;;;18.50;49.30;;;;;;5020058;28;20466;-85
2021/05/09 07:55:12;;;;;;;2.47;2.27;;;18.50;48.90;;;;;;5018602;28;20457;-86
2021/05/09 07:57:47;;;;;;;2.37;2.17;;;18.70;49.20;;;;;;5010838;28;20458;-86
2021/05/09 08:00:23;;;;;;;2.07;1.87;;;18.80;48.90;;;;;;5014793;28;20447;-86
2021/05/09 08:02:59;;;;;;;1.90;1.80;;;18.90;48.80;;;;;;5016687;28;20455;-85
2021/05/09 08:05:34;;;;;;;2.27;1.80;;;19.00;48.70;;;;;;5025798;28;20451;-85
2021/05/09 08:08:11;;;;;;;2.60;2.20;;;19.00;48.70;;;;;;5017363;28;20463;-87
2021/05/09 08:10:53;;;;;;;4.03;2.10;;;19.00;48.40;;;;;;5026123;28;20451;-85
2021/05/09 08:13:33;;;;;;;2.40;1.60;;;19.30;48.70;;;;;;5023036;28;20463;-86
2021/05/09 08:16:20;;;;;;;2.53;1.70;;;19.50;48.70;;;;;;5022090;28;20470;-85
2021/05/09 08:18:56;;;;;;;2.63;1.90;;;19.60;48.10;;;;;;5023602;28;20966;-86
2021/05/09 08:21:30;;;;;;;2.10;2.00;;;19.70;48.10;;;;;;5028420;28;20451;-85
2021/05/09 08:24:08;;;;;;;4.07;2.33;;;19.90;47.80;;;;;;5026273;28;20451;-85
2021/05/09 08:26:43;;;;;;;1.80;1.70;;;20.10;48.20;;;;;;5021362;28;20478;-86
2021/05/09 08:29:18;;;;;;;2.50;1.73;;;20.30;48.00;;;;;;5021663;28;20460;-85
2021/05/09 08:31:58;;;;;;;2.10;2.00;;;20.40;47.70;;;;;;5023068;28;20954;-86
2021/05/09 08:34:38;;;;;;;1.80;1.70;;;20.50;47.30;;;;;;5019644;28;20463;-88
2021/05/09 08:37:13;;;;;;;2.77;1.70;;;20.60;47.00;;;;;;5013588;28;20480;-86
2021/05/09 08:39:53;;;;;;;1.30;1.30;;;20.70;47.40;;;;;;5023760;28;20451;-86
2021/05/09 08:42:28;;;;;;;2.83;1.70;;;20.80;46.80;;;;;;5018680;28;20462;-87
2021/05/09 08:45:09;;;;;;;1.67;1.57;;;21.00;47.20;;;;;;5022551;28;20832;-86
2021/05/09 08:47:43;;;;;;;2.27;1.70;;;21.10;46.80;;;;;;5015765;28;20535;-86
2021/05/09 08:50:25;;;;;;;2.10;2.00;;;21.30;47.30;;;;;;5015195;28;20484;-88
2021/05/09 08:53:05;;;;;;;2.27;2.03;;;21.40;46.60;;;;;;5023510;28;20478;-85
2021/05/09 08:55:52;;;;;;;1.90;1.70;;;21.60;46.70;;;;;;5026003;28;20538;-86
2021/05/09 08:58:27;;;;;;;1.73;1.63;;;21.70;46.50;;;;;;5026743;28;20506;-86
2021/05/09 09:01:01;;;;;;;1.70;1.60;;;21.90;46.40;;;;;;5014270;28;20542;-87
2021/05/09 09:03:37;;;;;;;2.20;1.43;;;21.90;45.80;;;;;;5021639;28;20538;-82
2021/05/09 09:06:14;;;;;;;1.70;1.60;;;22.10;46.10;;;;;;5019985;28;20467;-83
2021/05/09 09:08:59;;;;;;;2.87;1.77;;;22.20;46.00;;;;;;5021677;28;20455;-85
2021/05/09 09:11:41;;;;;;;2.40;1.80;;;22.40;46.10;;;;;;5017729;28;20460;-82
2021/05/09 09:14:16;;;;;;;1.90;1.80;;;22.60;45.10;;;;;;5020685;28;20436;-82
2021/05/09 09:17:10;;;;;;;2.40;2.00;;;22.60;45.00;;;;;;5019632;28;20479;-84
2021/05/09 09:20:05;;;;;;;1.50;1.40;;;22.80;44.90;;;;;;5018223;28;20456;-83
2021/05/09 09:23:03;;;;;;;1.80;1.30;;;22.90;44.90;;;;;;5018452;28;20463;-84
2021/05/09 09:25:42;;;;;;;2.10;1.80;;;23.00;44.60;;;;;;5019876;28;20495;-83
2021/05/09 09:28:20;;;;;;;1.57;1.17;;;23.10;44.40;;;;;;5021374;28;20795;-84
2021/05/09 09:30:59;;;;;;;1.87;1.30;;;23.20;43.90;;;;;;5019149;28;20463;-85
2021/05/09 09:33:34;;;;;;;1.33;1.20;;;23.30;43.60;;;;;;5019186;28;20444;-83
2021/05/09 09:36:25;;;;;;;1.50;1.40;;;23.40;43.80;;;;;;5015276;28;20732;-84
2021/05/09 09:39:04;;;;;;;2.07;1.60;;;23.50;43.50;;;;;;5022549;28;20444;-84
2021/05/09 09:41:46;;;;;;;1.40;1.20;;;23.60;43.70;;;;;;5015884;28;20509;-83
2021/05/09 09:44:28;;;;;;;2.37;2.00;;;23.60;43.40;;;;;;5024595;28;20505;-87
2021/05/09 09:47:03;;;;;;;2.20;1.43;;;23.90;43.90;;;;;;5015794;28;20459;-82
2021/05/09 09:49:41;;;;;;;1.50;1.40;;;24.00;43.20;;;;;;5023109;28;20451;-83
2021/05/09 09:52:16;;;;;;;1.40;1.30;;;24.20;43.00;;;;;;5016348;28;20447;-83
2021/05/09 09:54:52;;;;;;;3.13;1.73;;;24.10;42.60;;;;;;5020257;28;20451;-84
2021/05/09 09:57:39;;;;;;;2.57;1.67;;;24.20;43.00;;;;;;5018507;28;20486;-85
2021/05/09 10:00:17;;;;;;;1.43;1.33;;;24.40;42.40;;;;;;5021026;28;20444;-86
2021/05/09 10:02:57;;;;;;;1.93;1.40;;;24.30;42.20;;;;;;5019082;28;20467;-83
2021/05/09 10:05:37;;;;;;;1.60;1.30;;;24.30;42.40;;;;;;5018480;28;20504;-82
2021/05/09 10:08:13;;;;;;;3.93;1.47;;;24.30;42.40;;;;;;5017928;28;20472;-83
2021/05/09 10:10:49;;;;;;;1.90;1.40;;;24.40;42.40;;;;;;5019288;28;20459;-83
2021/05/09 10:13:25;;;;;;;2.33;1.80;;;24.60;42.50;;;;;;5017676;28;20448;-82
2021/05/09 10:16:01;;;;;;;2.50;1.60;;;24.50;42.70;;;;;;5022375;28;20503;-82
2021/05/09 10:18:37;;;;;;;2.30;1.63;;;24.40;42.30;;;;;;5020576;28;20498;-83
2021/05/09 10:21:12;;;;;;;2.30;1.43;;;24.60;42.40;;;;;;5020541;28;20448;-83
2021/05/09 10:24:29;;;;;;;1.80;1.70;;;24.70;42.10;;;;;;5020459;28;20526;-83
2021/05/09 10:27:11;;;;;;;1.70;1.30;;;24.80;42.30;;;;;;5021063;28;20471;-83
2021/05/09 10:30:00;;;;;;;2.30;1.90;;;24.80;42.20;;;;;;5018092;28;21009;-84
2021/05/09 10:32:54;;;;;;;2.80;1.50;;;24.90;42.60;;;;;;5014189;28;20470;-84
2021/05/09 10:35:58;;;;;;;2.60;1.80;;;25.00;42.20;;;;;;5024850;28;20513;-83
2021/05/09 10:38:33;;;;;;;1.63;1.20;;;24.90;42.00;;;;;;5024773;28;20491;-81
2021/05/09 10:41:20;;;;;;;2.00;1.50;;;25.00;42.00;;;;;;5024367;28;20462;-82
2021/05/09 10:44:40;;;;;;;1.50;1.40;;;25.10;41.90;;;;;;5023202;28;20515;-87
2021/05/09 10:47:35;;;;;;;3.03;1.40;;;25.20;41.90;;;;;;5019639;28;20451;-87
2021/05/09 11:00:13;;;;;;;8.30;1.50;;;25.80;42.00;;;;;;5019591;28;20458;-88
2021/05/09 11:12:28;;;;;;;2.13;1.50;;;25.80;41.50;;;;;;5024490;28;20452;-85
2021/05/09 11:15:31;;;;;;;2.40;1.57;;;25.80;41.60;;;;;;5024270;28;20459;-86
2021/05/09 11:18:29;;;;;;;2.03;1.70;;;26.00;41.70;;;;;;5019583;28;20439;-86
2021/05/09 11:21:04;;;;;;;3.50;1.80;;;26.20;41.70;;;;;;5023239;28;20465;-81
2021/05/09 11:23:46;;;;;;;4.40;1.30;;;26.00;41.00;;;;;;5020164;28;20447;-84
2021/05/09 11:26:27;;;;;;;3.00;1.90;;;26.00;41.60;;;;;;5023174;28;20535;-83
2021/05/09 11:44:22;;;;;;;1.97;1.87;;;26.40;39.90;;;;;;5018665;28;20456;-88
2021/05/09 11:47:29;;;;;;;1.60;1.50;;;26.70;39.90;;;;;;5014972;28;20479;-89
2021/05/09 11:52:54;;;;;;;1.27;1.17;;;26.90;39.70;;;;;;5019895;28;20591;-87
2021/05/09 11:59:35;;;;;;;1.70;1.60;;;27.10;39.30;;;;;;5106709;27;20523;-88
2021/05/09 12:02:45;;;;;;;3.37;3.17;;;27.30;39.30;;;;;;5111878;28;20463;-87
2021/05/09 12:08:31;;;;;;;1.87;1.77;;;27.30;38.90;;;;;;5112067;28;20961;-90
2021/05/09 12:11:11;;;;;;;2.33;1.30;;;27.40;39.20;;;;;;5109934;28;20450;-87
2021/05/09 12:33:02;;;;;;;1.30;1.20;;;27.40;39.00;;;;;;5124862;28;20448;-88
2021/05/09 12:35:58;;;;;;;1.13;1.03;;;27.40;38.80;;;;;;5122164;28;20600;-86
2021/05/09 12:41:38;;;;;;;2.00;1.40;;;27.30;38.90;;;;;;5124645;28;20517;-87
2021/05/09 12:48:18;;;;;;;1.40;1.30;;;27.40;38.40;;;;;;5126610;28;20445;-88
2021/05/09 12:51:54;;;;;;;1.70;1.60;;;27.50;38.90;;;;;;5115526;28;20454;-88
2021/05/09 12:57:50;;;;;;;1.63;1.50;;;27.60;39.50;;;;;;5080155;27;20482;-87
2021/05/09 13:22:53;;;;;;;2.90;1.60;;;27.80;39.00;;;;;;5096893;27;21040;-77
2021/05/09 13:25:25;;;;;;;2.37;1.80;;;27.80;39.80;;;;;;5079815;28;21029;-77
2021/05/09 13:28:00;;;;;;;3.80;1.60;;;27.70;39.10;;;;;;5065336;28;22489;-77
2021/05/09 13:30:35;;;;;;;1.30;1.30;;;27.70;39.50;;;;;;5067596;28;20475;-77
2021/05/09 13:33:11;;;;;;;2.00;1.90;;;27.80;40.10;;;;;;5062805;28;20460;-77
2021/05/09 13:35:46;;;;;;;2.97;1.90;;;28.00;40.10;;;;;;5067462;28;20448;-78
2021/05/09 13:38:22;;;;;;;1.80;1.70;;;28.10;40.00;;;;;;5060125;28;20454;-78
2021/05/09 13:40:57;;;;;;;1.90;1.70;;;28.00;40.10;;;;;;5060445;28;20951;-78
2021/05/09 13:43:32;;;;;;;1.70;1.60;;;27.80;40.50;;;;;;5069049;28;20448;-77
2021/05/09 13:51:46;;;;;;;2.53;1.80;;;27.80;41.00;;;;;;5063210;28;20534;-87
2021/05/09 14:04:44;;;;;;;1.77;1.67;;;27.90;40.70;;;;;;5077976;28;20453;-87
2021/05/09 14:07:19;;;;;;;2.20;2.10;;;27.90;40.80;;;;;;5085530;28;20449;-89
2021/05/09 14:10:21;;;;;;;2.30;1.87;;;28.10;40.70;;;;;;5073287;28;20449;-88
2021/05/09 14:12:57;;;;;;;1.70;1.57;;;28.00;40.20;;;;;;5082923;28;20444;-88
2021/05/09 14:15:54;;;;;;;2.00;1.67;;;28.00;40.40;;;;;;5085461;28;20527;-87
2021/05/09 14:18:35;;;;;;;1.50;1.40;;;27.90;40.30;;;;;;5079242;28;20445;-89
2021/05/09 14:21:12;;;;;;;1.97;1.87;;;27.90;40.30;;;;;;5075248;28;20480;-89
2021/05/09 14:26:39;;;;;;;3.03;1.53;;;27.90;40.70;;;;;;5064218;28;20493;-89
2021/05/09 14:29:19;;;;;;;2.13;1.90;;;27.80;40.40;;;;;;5061403;28;20811;-89
2021/05/09 14:32:28;;;;;;;1.87;1.60;;;27.90;40.60;;;;;;5064227;28;20481;-88
2021/05/09 14:38:10;;;;;;;1.60;1.50;;;27.70;40.50;;;;;;5064054;28;20457;-88
2021/05/09 14:43:38;;;;;;;2.23;1.43;;;27.70;40.50;;;;;;5067947;28;20459;-89
2021/05/09 14:59:31;;;;;;;2.40;1.40;;;27.90;40.30;;;;;;5069018;28;20433;-87
2021/05/09 15:17:52;;;;;;;5.10;2.23;;;28.40;39.50;;;;;;4949425;29;20469;-90
2021/05/09 16:13:17;;;;;;;2.07;1.80;;;28.20;39.80;;;;;;4943228;29;20453;-88
2021/05/09 16:18:48;;;;;;;3.97;2.10;;;28.50;40.20;;;;;;4995057;28;20459;-88
2021/05/09 16:21:36;;;;;;;2.23;2.10;;;28.60;40.30;;;;;;5024503;28;20447;-87
2021/05/09 16:38:33;;;;;;;2.90;2.70;;;29.00;40.20;;;;;;5016552;28;20517;-88
2021/05/09 16:41:15;;;;;;;3.00;2.80;;;29.30;40.20;;;;;;5000977;28;20476;-88
2021/05/09 16:50:33;;;;;;;2.97;2.77;;;28.70;39.90;;;;;;5022352;28;20458;-88
2021/05/09 16:53:21;;;;;;;5.90;4.40;;;28.40;40.30;;;;;;5022784;28;20462;-86
2021/05/09 16:58:51;;;;;;;2.60;2.40;;;27.90;40.30;;;;;;5019864;28;21223;-88
2021/05/09 17:04:32;;;;;;;3.17;2.83;;;28.40;39.80;;;;;;5026507;28;20450;-88
2021/05/09 17:15:49;;;;;;;3.00;2.70;;;30.40;38.50;;;;;;5023317;28;20520;-88
2021/05/09 17:21:25;;;;;;;3.70;1.97;;;31.30;37.80;;;;;;5018925;28;20470;-85
2021/05/09 17:24:29;;;;;;;3.30;2.20;;;30.90;37.70;;;;;;5014969;28;20524;-87
2021/05/09 17:27:43;;;;;;;2.00;1.83;;;31.00;37.50;;;;;;5016978;28;20447;-88
2021/05/09 17:33:46;;;;;;;1.90;1.80;;;30.70;37.40;;;;;;5018538;28;20448;-88
2021/05/09 17:39:25;;;;;;;4.03;1.80;;;29.50;37.10;;;;;;5012405;28;20478;-88
2021/05/09 17:42:06;;;;;;;1.80;1.50;;;30.20;37.40;;;;;;5020300;28;20470;-88
2021/05/09 18:14:36;;;;;;;3.00;1.63;;;24.00;40.70;;;;;;5008870;28;20449;-88
2021/05/09 18:42:47;;;;;;;2.57;2.20;;;22.20;42.40;;;;;;5016649;28;20452;-88
2021/05/09 18:49:08;;;;;;;2.10;1.90;;;21.80;42.90;;;;;;5022313;28;20546;-88
2021/05/09 18:52:00;;;;;;;3.40;2.00;;;21.50;43.00;;;;;;5017254;28;20488;-87
2021/05/09 19:00:38;;;;;;;3.40;2.70;;;20.90;43.60;;;;;;5022127;28;20943;-85
2021/05/09 19:03:20;;;;;;;2.20;1.90;;;20.60;43.50;;;;;;5015164;28;20613;-88
2021/05/09 19:06:27;;;;;;;2.10;1.90;;;20.70;43.90;;;;;;5006270;28;20462;-86
2021/05/09 19:15:33;;;;;;;2.50;2.30;;;20.20;43.80;;;;;;5020395;28;20446;-87
2021/05/09 19:21:17;;;;;;;3.20;2.97;;;20.00;43.90;;;;;;5015078;28;20467;-84